Time,TemperatureF,DewpointF,PressureIn,WindDirection,WindDirectionDegrees,WindSpeedMPH,WindSpeedGustMPH,Humidity,HourlyPrecipIn,Conditions,Clouds,dailyrainin,SoftwareType,DateUTC
2013-03-10 00:00:00,39.3,24.1,30.25,NE,53,0.0,3.0,54,0.00,,SKC,0.00,VWS V14.01,2013-03-10 08:00:00,
2013-03-10 00:03:00,40.6,23.9,30.26,ESE,112,0.0,0.0,51,0.00,,SKC,0.00,VWS V14.01,2013-03-10 08:03:00,
2013-03-10 00:08:00,40.8,24.1,30.26,East,93,0.0,2.0,51,0.00,,SKC,0.00,VWS V14.01,2013-03-10 08:08:00,
2013-03-10 00:13:00,41.5,23.8,30.26,NE,55,2.0,3.0,49,0.00,,SKC,0.00,VWS V14.01,2013-03-10 08:13:00,
2013-03-10 00:18:00,41.8,26.4,30.25,NE,53,0.0,3.0,54,0.00,,SKC,0.00,VWS V14.01,2013-03-10 08:18:00,
2013-03-10 00:23:00,40.8,24.5,30.25,NE,53,0.0,3.0,52,0.00,,SKC,0.00,VWS V14.01,2013-03-10 08:23:00,
2013-03-10 00:28:00,40.8,23.6,30.25,NE,53,0.0,3.0,50,0.00,,SKC,0.00,VWS V14.01,2013-03-10 08:28:00,
2013-03-10 00:30:00,39.1,24.7,30.26,NW,319,0.0,3.0,56,0.00,,SKC,0.00,VWS V14.01,2013-03-10 08:30:00,
2013-03-10 00:33:00,40.8,24.1,30.25,NE,53,1.0,2.0,51,0.00,,SKC,0.00,VWS V14.01,2013-03-10 08:33:00,
2013-03-10 00:38:00,41.3,23.1,30.25,NE,53,0.0,3.0,48,0.00,,SKC,0.00,VWS V14.01,2013-03-10 08:38:00,
2013-03-10 00:43:00,41.6,23.4,30.25,NE,53,0.0,3.0,48,0.00,,SKC,0.00,VWS V14.01,2013-03-10 08:43:00,
2013-03-10 00:48:00,41.3,25.5,30.24,NE,53,0.0,3.0,53,0.00,,SKC,0.00,VWS V14.01,2013-03-10 08:48:00,
2013-03-10 00:54:00,40.3,24.5,30.24,NE,53,0.0,3.0,53,0.00,,SKC,0.00,VWS V14.01,2013-03-10 08:54:00,
2013-03-10 00:59:00,39.5,24.2,30.25,NE,53,0.0,3.0,54,0.00,,SKC,0.00,VWS V14.01,2013-03-10 08:59:00,
2013-03-10 01:04:00,38.8,24.5,30.25,NNW,346,3.0,3.0,56,0.00,,SKC,0.00,VWS V14.01,2013-03-10 09:04:00,
2013-03-10 01:09:00,38.6,23.4,30.25,NW,311,0.0,3.0,54,0.00,,SKC,0.00,VWS V14.01,2013-03-10 09:09:00,
2013-03-10 01:14:00,39.2,22.1,30.26,NW,311,0.0,3.0,50,0.00,,SKC,0.00,VWS V14.01,2013-03-10 09:14:00,
2013-03-10 01:19:00,40.1,21.5,30.26,NW,313,0.0,3.0,47,0.00,,SKC,0.00,VWS V14.01,2013-03-10 09:19:00,
2013-03-10 01:24:00,40.6,23.9,30.26,NW,319,0.0,3.0,51,0.00,,SKC,0.00,VWS V14.01,2013-03-10 09:24:00,
2013-03-10 01:29:00,39.2,24.8,30.26,NW,319,0.0,3.0,56,0.00,,SKC,0.00,VWS V14.01,2013-03-10 09:29:00,
2013-03-10 01:34:00,38.5,22.4,30.26,NW,319,0.0,1.0,52,0.00,,SKC,0.00,VWS V14.01,2013-03-10 09:34:00,
2013-03-10 01:39:00,39.5,20.5,30.26,North,360,3.0,3.0,46,0.00,,SKC,0.00,VWS V14.01,2013-03-10 09:39:00,
2013-03-10 01:45:00,41.6,21.3,30.25,NE,53,0.0,5.0,44,0.00,,SKC,0.00,VWS V14.01,2013-03-10 09:45:00,
2013-03-10 01:50:00,42.1,23.3,30.25,NE,53,0.0,5.0,47,0.00,,SKC,0.00,VWS V14.01,2013-03-10 09:50:00,
2013-03-10 01:55:00,40.8,24.1,30.25,NE,40,0.0,5.0,51,0.00,,SKC,0.00,VWS V14.01,2013-03-10 09:55:00,
2013-03-10 03:00:00,40.3,22.2,30.25,WSW,253,0.0,1.0,48,0.00,,SKC,0.00,VWS V14.01,2013-03-10 10:00:00,
2013-03-10 03:05:00,41.1,20.9,30.25,SE,142,0.0,1.0,44,0.00,,SKC,0.00,VWS V14.01,2013-03-10 10:05:00,
2013-03-10 03:10:00,41.3,20.5,30.25,SE,142,0.0,1.0,43,0.00,,SKC,0.00,VWS V14.01,2013-03-10 10:10:00,
2013-03-10 03:15:00,41.1,21.4,30.24,NE,43,0.0,3.0,45,0.00,,SKC,0.00,VWS V14.01,2013-03-10 10:15:00,
2013-03-10 03:20:00,40.9,20.7,30.24,NE,42,3.0,3.0,44,0.00,,SKC,0.00,VWS V14.01,2013-03-10 10:20:00,
2013-03-10 03:25:00,41.1,20.9,30.24,NNE,32,0.0,3.0,44,0.00,,SKC,0.00,VWS V14.01,2013-03-10 10:25:00,
2013-03-10 03:30:00,41.3,20.5,30.24,NNE,32,0.0,0.0,43,0.00,,SKC,0.00,VWS V14.01,2013-03-10 10:30:00,
2013-03-10 03:35:00,41.5,20.7,30.24,NNE,32,0.0,2.0,43,0.00,,SKC,0.00,VWS V14.01,2013-03-10 10:35:00,
2013-03-10 03:40:00,41.5,20.7,30.24,NNE,32,0.0,2.0,43,0.00,,SKC,0.00,VWS V14.01,2013-03-10 10:40:00,
2013-03-10 03:46:00,41.3,21.0,30.24,NNE,32,0.0,2.0,44,0.00,,SKC,0.00,VWS V14.01,2013-03-10 10:46:00,
2013-03-10 03:51:00,40.9,20.7,30.24,NNE,32,0.0,2.0,44,0.00,,SKC,0.00,VWS V14.01,2013-03-10 10:51:00,
2013-03-10 03:56:00,41.1,19.2,30.24,NNE,32,0.0,2.0,41,0.00,,SKC,0.00,VWS V14.01,2013-03-10 10:56:00,
2013-03-10 04:00:00,41.8,19.3,30.24,NNE,32,0.0,2.0,40,0.00,,SKC,0.00,VWS V14.01,2013-03-10 11:00:00,
2013-03-10 04:01:00,41.9,19.4,30.24,NNE,32,0.0,0.0,40,0.00,,SKC,0.00,VWS V14.01,2013-03-10 11:01:00,
2013-03-10 04:06:00,42.3,20.3,30.24,NNE,32,0.0,0.0,41,0.00,,SKC,0.00,VWS V14.01,2013-03-10 11:06:00,
2013-03-10 04:11:00,41.9,21.0,30.24,NNE,32,0.0,1.0,43,0.00,,SKC,0.00,VWS V14.01,2013-03-10 11:11:00,
2013-03-10 04:16:00,41.1,20.9,30.23,NNE,32,0.0,1.0,44,0.00,,SKC,0.00,VWS V14.01,2013-03-10 11:16:00,
2013-03-10 04:21:00,40.6,20.4,30.23,NNE,32,0.0,1.0,44,0.00,,SKC,0.00,VWS V14.01,2013-03-10 11:21:00,
2013-03-10 04:26:00,40.2,21.1,30.23,NNE,32,0.0,1.0,46,0.00,,SKC,0.00,VWS V14.01,2013-03-10 11:26:00,
2013-03-10 04:30:00,39.8,20.7,30.23,NNE,32,0.0,1.0,46,0.00,,SKC,0.00,VWS V14.01,2013-03-10 11:30:00,
2013-03-10 04:31:00,39.8,20.7,30.23,NNE,32,0.0,0.0,46,0.00,,SKC,0.00,VWS V14.01,2013-03-10 11:31:00,
2013-03-10 04:36:00,39.6,21.0,30.23,NNE,32,0.0,0.0,47,0.00,,SKC,0.00,VWS V14.01,2013-03-10 11:36:00,
2013-03-10 04:42:00,39.3,20.8,30.23,NNE,32,0.0,0.0,47,0.00,,SKC,0.00,VWS V14.01,2013-03-10 11:42:00,
2013-03-10 04:47:00,39.3,20.8,30.23,NNE,32,0.0,1.0,47,0.00,,SKC,0.00,VWS V14.01,2013-03-10 11:47:00,
2013-03-10 04:52:00,39.1,21.1,30.23,NNE,32,0.0,1.0,48,0.00,,SKC,0.00,VWS V14.01,2013-03-10 11:52:00,
2013-03-10 04:57:00,38.9,19.9,30.23,NNE,32,0.0,1.0,46,0.00,,SKC,0.00,VWS V14.01,2013-03-10 11:57:00,
2013-03-10 05:00:00,38.9,19.9,30.23,NNE,32,0.0,1.0,46,0.00,,SKC,0.00,VWS V14.01,2013-03-10 12:00:00,
2013-03-10 05:02:00,38.9,20.9,30.23,NNE,32,0.0,0.0,48,0.00,,SKC,0.00,VWS V14.01,2013-03-10 12:02:00,
2013-03-10 05:07:00,38.9,20.9,30.23,NNE,32,0.0,0.0,48,0.00,,SKC,0.00,VWS V14.01,2013-03-10 12:07:00,
2013-03-10 05:12:00,38.5,22.0,30.23,NNE,32,0.0,0.0,51,0.00,,SKC,0.00,VWS V14.01,2013-03-10 12:12:00,
2013-03-10 05:17:00,38.0,21.5,30.24,NNE,32,0.0,0.0,51,0.00,,SKC,0.00,VWS V14.01,2013-03-10 12:17:00,
2013-03-10 05:22:00,37.8,20.8,30.24,NNE,32,0.0,0.0,50,0.00,,SKC,0.00,VWS V14.01,2013-03-10 12:22:00,
2013-03-10 05:27:00,37.6,21.1,30.24,NNE,32,0.0,0.0,51,0.00,,SKC,0.00,VWS V14.01,2013-03-10 12:27:00,
2013-03-10 05:30:00,37.5,21.0,30.24,NNE,32,0.0,0.0,51,0.00,,SKC,0.00,VWS V14.01,2013-03-10 12:30:00,
2013-03-10 05:32:00,37.6,20.7,30.24,NNE,32,0.0,0.0,50,0.00,,SKC,0.00,VWS V14.01,2013-03-10 12:32:00,
2013-03-10 05:38:00,37.9,20.5,30.24,NNE,32,0.0,1.0,49,0.00,,SKC,0.00,VWS V14.01,2013-03-10 12:38:00,
2013-03-10 05:43:00,38.0,21.5,30.24,NNE,32,0.0,1.0,51,0.00,,SKC,0.00,VWS V14.01,2013-03-10 12:43:00,
2013-03-10 05:48:00,37.9,20.5,30.25,NNE,32,0.0,1.0,49,0.00,,SKC,0.00,VWS V14.01,2013-03-10 12:48:00,
2013-03-10 05:53:00,37.8,22.2,30.25,NNE,32,0.0,1.0,53,0.00,,SKC,0.00,VWS V14.01,2013-03-10 12:53:00,
2013-03-10 05:58:00,37.2,21.2,30.25,NNE,32,0.0,1.0,52,0.00,,SKC,0.00,VWS V14.01,2013-03-10 12:58:00,
2013-03-10 06:00:00,37.0,21.0,30.25,NNE,32,0.0,1.0,52,0.00,,SKC,0.00,VWS V14.01,2013-03-10 13:00:00,
2013-03-10 06:03:00,36.9,20.5,30.25,NNE,32,0.0,0.0,51,0.00,,SKC,0.00,VWS V14.01,2013-03-10 13:03:00,
2013-03-10 06:08:00,36.5,21.5,30.25,NNE,32,0.0,0.0,54,0.00,,SKC,0.00,VWS V14.01,2013-03-10 13:08:00,
2013-03-10 06:13:00,35.8,22.1,30.25,NNE,32,0.0,2.0,57,0.00,,SKC,0.00,VWS V14.01,2013-03-10 13:13:00,
2013-03-10 06:18:00,35.2,20.7,30.27,NNE,32,0.0,2.0,55,0.00,,SKC,0.00,VWS V14.01,2013-03-10 13:18:00,
2013-03-10 06:23:00,35.6,22.3,30.27,NNE,32,0.0,2.0,58,0.00,,SKC,0.00,VWS V14.01,2013-03-10 13:23:00,
2013-03-10 06:28:00,35.2,20.7,30.27,NNE,32,0.0,2.0,55,0.00,,SKC,0.00,VWS V14.01,2013-03-10 13:28:00,
2013-03-10 06:30:00,35.2,21.1,30.27,NNE,32,0.0,2.0,56,0.00,,SKC,0.00,VWS V14.01,2013-03-10 13:30:00,
2013-03-10 06:33:00,35.0,21.7,30.27,NNE,32,0.0,0.0,58,0.00,,SKC,0.00,VWS V14.01,2013-03-10 13:33:00,
2013-03-10 06:39:00,34.7,21.5,30.27,NNE,32,0.0,2.0,58,0.00,,SKC,0.00,VWS V14.01,2013-03-10 13:39:00,
2013-03-10 06:44:00,35.0,21.3,30.28,NNE,32,0.0,2.0,57,0.00,,SKC,0.00,VWS V14.01,2013-03-10 13:44:00,
2013-03-10 06:49:00,35.2,21.9,30.28,NNE,32,0.0,2.0,58,0.00,,SKC,0.00,VWS V14.01,2013-03-10 13:49:00,
2013-03-10 06:54:00,35.0,21.7,30.28,NNE,32,0.0,2.0,58,0.00,,SKC,0.00,VWS V14.01,2013-03-10 13:54:00,
2013-03-10 06:59:00,34.7,21.9,30.28,NNE,32,0.0,2.0,59,0.00,,SKC,0.00,VWS V14.01,2013-03-10 13:59:00,
2013-03-10 07:00:00,34.7,21.9,30.28,NNE,32,0.0,2.0,59,0.00,,SKC,0.00,VWS V14.01,2013-03-10 14:00:00,
2013-03-10 07:04:00,34.0,22.4,30.28,NNE,32,0.0,0.0,62,0.00,,SKC,0.00,VWS V14.01,2013-03-10 14:04:00,
2013-03-10 07:09:00,33.5,21.9,30.28,NNE,32,0.0,0.0,62,0.00,,SKC,0.00,VWS V14.01,2013-03-10 14:09:00,
2013-03-10 07:14:00,33.4,21.8,30.30,NNE,32,0.0,0.0,62,0.00,,SKC,0.00,VWS V14.01,2013-03-10 14:14:00,
2013-03-10 07:19:00,33.2,22.0,30.30,NNE,32,0.0,0.0,63,0.00,,SKC,0.00,VWS V14.01,2013-03-10 14:19:00,
2013-03-10 07:24:00,33.5,22.6,30.30,NNE,32,0.0,0.0,64,0.00,,SKC,0.00,VWS V14.01,2013-03-10 14:24:00,
2013-03-10 07:30:00,33.5,21.1,30.31,NNE,32,0.0,0.0,60,0.00,,SKC,0.00,VWS V14.01,2013-03-10 14:30:00,
2013-03-10 07:35:00,33.5,22.3,30.31,NNE,32,0.0,0.0,63,0.00,,SKC,0.00,VWS V14.01,2013-03-10 14:35:00,
2013-03-10 07:40:00,33.1,22.6,30.31,NNE,32,0.0,2.0,65,0.00,,SKC,0.00,VWS V14.01,2013-03-10 14:40:00,
2013-03-10 07:45:00,32.9,22.1,30.31,NNE,32,0.0,2.0,64,0.00,,SKC,0.00,VWS V14.01,2013-03-10 14:45:00,
2013-03-10 07:50:00,33.1,22.3,30.31,NNE,32,0.0,2.0,64,0.00,,SKC,0.00,VWS V14.01,2013-03-10 14:50:00,
2013-03-10 07:55:00,33.2,22.0,30.31,NNE,32,0.0,2.0,63,0.00,,SKC,0.00,VWS V14.01,2013-03-10 14:55:00,
2013-03-10 08:00:00,34.1,22.5,30.31,NNE,32,0.0,0.0,62,0.00,,SKC,0.00,VWS V14.01,2013-03-10 15:00:00,
2013-03-10 08:05:00,34.1,22.8,30.31,NNE,32,0.0,0.0,63,0.00,,SKC,0.00,VWS V14.01,2013-03-10 15:05:00,
2013-03-10 08:10:00,34.0,23.1,30.31,NNE,32,0.0,0.0,64,0.00,,SKC,0.00,VWS V14.01,2013-03-10 15:10:00,
2013-03-10 08:15:00,34.1,22.8,30.32,NNE,32,0.0,0.0,63,0.00,,SKC,0.00,VWS V14.01,2013-03-10 15:15:00,
2013-03-10 08:20:00,34.4,22.7,30.32,NNE,32,0.0,0.0,62,0.00,,SKC,0.00,VWS V14.01,2013-03-10 15:20:00,
2013-03-10 08:25:00,35.0,22.9,30.32,NNE,32,0.0,0.0,61,0.00,,SKC,0.00,VWS V14.01,2013-03-10 15:25:00,
2013-03-10 08:30:00,35.6,23.5,30.32,NNE,32,0.0,0.0,61,0.00,,SKC,0.00,VWS V14.01,2013-03-10 15:30:00,
2013-03-10 08:31:00,35.9,23.8,30.32,NNE,32,0.0,0.0,61,0.00,,SKC,0.00,VWS V14.01,2013-03-10 15:31:00,
2013-03-10 08:36:00,37.2,24.2,30.32,NNE,32,0.0,0.0,59,0.00,,SKC,0.00,VWS V14.01,2013-03-10 15:36:00,
2013-03-10 08:41:00,38.2,24.3,30.32,NNE,32,0.0,0.0,57,0.00,,SKC,0.00,VWS V14.01,2013-03-10 15:41:00,
2013-03-10 08:46:00,39.2,24.4,30.31,NNE,32,0.0,1.0,55,0.00,,SKC,0.00,VWS V14.01,2013-03-10 15:46:00,
2013-03-10 08:51:00,40.5,25.6,30.31,NNE,32,0.0,1.0,55,0.00,,SKC,0.00,VWS V14.01,2013-03-10 15:51:00,
2013-03-10 08:56:00,41.5,25.2,30.31,NNE,32,0.0,1.0,52,0.00,,SKC,0.00,VWS V14.01,2013-03-10 15:56:00,
2013-03-10 09:00:00,42.1,25.8,30.29,NNE,32,0.0,1.0,52,0.00,,SKC,0.00,VWS V14.01,2013-03-10 16:00:00,
2013-03-10 09:01:00,42.5,26.1,30.29,NNE,32,0.0,0.0,52,0.00,,SKC,0.00,VWS V14.01,2013-03-10 16:01:00,
2013-03-10 09:06:00,43.6,27.1,30.29,NNE,32,0.0,0.0,52,0.00,,SKC,0.00,VWS V14.01,2013-03-10 16:06:00,
2013-03-10 09:11:00,44.2,26.8,30.29,NNE,32,0.0,1.0,50,0.00,,SKC,0.00,VWS V14.01,2013-03-10 16:11:00,
2013-03-10 09:17:00,45.2,26.7,30.29,NNE,32,0.0,1.0,48,0.00,,SKC,0.00,VWS V14.01,2013-03-10 16:17:00,
2013-03-10 09:22:00,45.4,25.9,30.29,NNE,32,0.0,1.0,46,0.00,,SKC,0.00,VWS V14.01,2013-03-10 16:22:00,
2013-03-10 09:27:00,46.4,26.2,30.29,NNE,32,0.0,1.0,45,0.00,,SKC,0.00,VWS V14.01,2013-03-10 16:27:00,
2013-03-10 09:30:00,47.4,26.0,30.29,NNE,32,0.0,1.0,43,0.00,,SKC,0.00,VWS V14.01,2013-03-10 16:30:00,
2013-03-10 09:32:00,47.7,26.3,30.29,NNE,32,0.0,0.0,43,0.00,,SKC,0.00,VWS V14.01,2013-03-10 16:32:00,
2013-03-10 09:37:00,48.2,26.8,30.29,NNE,32,0.0,0.0,43,0.00,,SKC,0.00,VWS V14.01,2013-03-10 16:37:00,
2013-03-10 09:42:00,48.6,24.2,30.29,NNE,32,0.0,0.0,38,0.00,,SKC,0.00,VWS V14.01,2013-03-10 16:42:00,
2013-03-10 09:47:00,49.2,27.7,30.28,NNE,32,0.0,0.0,43,0.00,,SKC,0.00,VWS V14.01,2013-03-10 16:47:00,
2013-03-10 09:52:00,49.8,26.5,30.28,NNE,32,0.0,1.0,40,0.00,,SKC,0.00,VWS V14.01,2013-03-10 16:52:00,
2013-03-10 09:57:00,50.4,25.1,30.28,NNE,32,0.0,1.0,37,0.00,,SKC,0.00,VWS V14.01,2013-03-10 16:57:00,
2013-03-10 10:00:00,50.5,23.9,30.28,NNE,32,0.0,1.0,35,0.00,,SKC,0.00,VWS V14.01,2013-03-10 17:00:00,
2013-03-10 10:02:00,50.7,23.4,30.28,NNE,32,0.0,0.0,34,0.00,,SKC,0.00,VWS V14.01,2013-03-10 17:02:00,
2013-03-10 10:07:00,51.1,25.1,30.28,NNE,32,0.0,1.0,36,0.00,,SKC,0.00,VWS V14.01,2013-03-10 17:07:00,
2013-03-10 10:12:00,51.4,26.7,30.28,WNW,283,0.0,3.0,38,0.00,,SKC,0.00,VWS V14.01,2013-03-10 17:12:00,
2013-03-10 10:18:00,51.3,26.6,30.28,NW,315,0.0,4.0,38,0.00,,SKC,0.00,VWS V14.01,2013-03-10 17:18:00,
2013-03-10 10:23:00,51.0,27.5,30.28,NNW,336,0.0,5.0,40,0.00,,SKC,0.00,VWS V14.01,2013-03-10 17:23:00,
2013-03-10 10:28:00,51.0,27.5,30.28,NNW,336,0.0,5.0,40,0.00,,SKC,0.00,VWS V14.01,2013-03-10 17:28:00,
2013-03-10 10:30:00,51.1,28.2,30.28,NNW,336,1.0,5.0,41,0.00,,SKC,0.00,VWS V14.01,2013-03-10 17:30:00,
2013-03-10 10:33:00,50.8,26.8,30.28,WNW,296,3.0,10.0,39,0.00,,SKC,0.00,VWS V14.01,2013-03-10 17:33:00,
2013-03-10 10:38:00,50.2,27.4,30.28,WNW,301,2.0,11.0,41,0.00,,SKC,0.00,VWS V14.01,2013-03-10 17:38:00,
2013-03-10 10:43:00,50.2,27.4,30.28,WNW,298,0.0,11.0,41,0.00,,SKC,0.00,VWS V14.01,2013-03-10 17:43:00,
2013-03-10 10:48:00,50.4,27.6,30.29,NW,320,0.0,11.0,41,0.00,,SKC,0.00,VWS V14.01,2013-03-10 17:48:00,
2013-03-10 10:53:00,51.0,28.7,30.29,WSW,254,0.0,11.0,42,0.00,,SKC,0.00,VWS V14.01,2013-03-10 17:53:00,
2013-03-10 10:58:00,51.6,28.7,30.29,West,261,3.0,11.0,41,0.00,,SKC,0.00,VWS V14.01,2013-03-10 17:58:00,
2013-03-10 11:00:00,51.6,28.7,30.27,West,265,0.0,11.0,41,0.00,,SKC,0.00,VWS V14.01,2013-03-10 18:00:00,
2013-03-10 11:03:00,51.7,28.2,30.27,West,265,0.0,1.0,40,0.00,,SKC,0.00,VWS V14.01,2013-03-10 18:03:00,
2013-03-10 11:09:00,52.0,26.5,30.27,WNW,288,0.0,2.0,37,0.00,,SKC,0.00,VWS V14.01,2013-03-10 18:09:00,
2013-03-10 11:14:00,52.8,28.5,30.28,North,351,0.0,2.0,39,0.00,,SKC,0.00,VWS V14.01,2013-03-10 18:14:00,
2013-03-10 11:19:00,52.9,26.0,30.28,NW,306,4.0,4.0,35,0.00,,SKC,0.00,VWS V14.01,2013-03-10 18:19:00,
2013-03-10 11:24:00,52.8,27.3,30.28,WNW,302,0.0,4.0,37,0.00,,SKC,0.00,VWS V14.01,2013-03-10 18:24:00,
2013-03-10 11:29:00,52.8,28.5,30.28,NW,312,4.0,7.0,39,0.00,,SKC,0.00,VWS V14.01,2013-03-10 18:29:00,
2013-03-10 11:30:00,52.8,28.5,30.28,WNW,298,5.0,7.0,39,0.00,,SKC,0.00,VWS V14.01,2013-03-10 18:30:00,
2013-03-10 11:34:00,52.9,29.9,30.28,WSW,257,0.0,5.0,41,0.00,,SKC,0.00,VWS V14.01,2013-03-10 18:34:00,
2013-03-10 11:39:00,53.5,30.4,30.28,NW,308,0.0,5.0,41,0.00,,SKC,0.00,VWS V14.01,2013-03-10 18:39:00,
2013-03-10 11:45:00,53.9,31.9,30.28,West,269,1.0,5.0,43,0.00,,SKC,0.00,VWS V14.01,2013-03-10 18:45:00,
2013-03-10 11:50:00,53.9,31.9,30.28,WSW,254,0.0,5.0,43,0.00,,SKC,0.00,VWS V14.01,2013-03-10 18:50:00,
2013-03-10 11:55:00,54.1,32.1,30.28,SW,236,0.0,8.0,43,0.00,,SKC,0.00,VWS V14.01,2013-03-10 18:55:00,
2013-03-10 12:00:00,54.7,31.5,30.27,WNW,282,0.0,1.0,41,0.00,,SKC,0.00,VWS V14.01,2013-03-10 19:00:00,
2013-03-10 12:05:00,55.3,30.8,30.27,NNW,329,0.0,2.0,39,0.00,,SKC,0.00,VWS V14.01,2013-03-10 19:05:00,
2013-03-10 12:10:00,55.7,32.4,30.27,NW,323,1.0,3.0,41,0.00,,SKC,0.00,VWS V14.01,2013-03-10 19:10:00,
2013-03-10 12:15:00,55.7,34.1,30.27,SW,230,0.0,4.0,44,0.00,,SKC,0.00,VWS V14.01,2013-03-10 19:15:00,
2013-03-10 12:20:00,55.7,34.1,30.27,NNW,333,0.0,4.0,44,0.00,,SKC,0.00,VWS V14.01,2013-03-10 19:20:00,
2013-03-10 12:25:00,55.7,33.6,30.27,WSW,254,0.0,4.0,43,0.00,,SKC,0.00,VWS V14.01,2013-03-10 19:25:00,
2013-03-10 12:30:00,56.2,34.0,30.26,NW,310,0.0,0.0,43,0.00,,SKC,0.00,VWS V14.01,2013-03-10 19:30:00,
2013-03-10 12:35:00,56.9,35.2,30.26,SW,225,1.0,3.0,44,0.00,,SKC,0.00,VWS V14.01,2013-03-10 19:35:00,
2013-03-10 12:41:00,57.6,33.5,30.26,SW,217,2.0,4.0,40,0.00,,SKC,0.00,VWS V14.01,2013-03-10 19:41:00,
2013-03-10 12:46:00,58.7,33.8,30.25,SW,219,0.0,4.0,39,0.00,,SKC,0.00,VWS V14.01,2013-03-10 19:46:00,
2013-03-10 12:52:00,58.6,33.7,30.25,SW,218,0.0,4.0,39,0.00,,SKC,0.00,VWS V14.01,2013-03-10 19:52:00,
2013-03-10 12:57:00,59.2,34.3,30.25,WSW,242,2.0,4.0,39,0.00,,SKC,0.00,VWS V14.01,2013-03-10 19:57:00,
2013-03-10 13:00:00,59.6,34.6,30.24,SW,226,4.0,4.0,39,0.00,,SKC,0.00,VWS V14.01,2013-03-10 20:00:00,
2013-03-10 13:02:00,59.8,32.1,30.24,SW,225,0.0,5.0,35,0.00,,SKC,0.00,VWS V14.01,2013-03-10 20:02:00,
2013-03-10 13:08:00,60.4,32.7,30.24,SW,224,0.0,5.0,35,0.00,,SKC,0.00,VWS V14.01,2013-03-10 20:08:00,
2013-03-10 13:13:00,60.5,32.7,30.24,SW,223,0.0,5.0,35,0.00,,SKC,0.00,VWS V14.01,2013-03-10 20:13:00,
2013-03-10 13:18:00,60.1,31.7,30.23,SW,230,0.0,5.0,34,0.00,,SKC,0.00,VWS V14.01,2013-03-10 20:18:00,
2013-03-10 13:23:00,60.1,33.1,30.23,NW,320,0.0,5.0,36,0.00,,SKC,0.00,VWS V14.01,2013-03-10 20:23:00,
2013-03-10 13:28:00,60.7,35.6,30.23,SSE,150,0.0,6.0,39,0.00,,SKC,0.00,VWS V14.01,2013-03-10 20:28:00,
2013-03-10 13:30:00,60.7,35.6,30.23,SSE,147,4.0,6.0,39,0.00,,SKC,0.00,VWS V14.01,2013-03-10 20:30:00,
2013-03-10 13:33:00,60.5,36.1,30.23,SW,227,0.0,4.0,40,0.00,,SKC,0.00,VWS V14.01,2013-03-10 20:33:00,
2013-03-10 13:38:00,60.7,37.5,30.23,SSW,209,0.0,4.0,42,0.00,,SKC,0.00,VWS V14.01,2013-03-10 20:38:00,
2013-03-10 13:43:00,61.2,38.0,30.23,SW,216,1.0,4.0,42,0.00,,SKC,0.00,VWS V14.01,2013-03-10 20:43:00,
2013-03-10 13:49:00,61.0,35.9,30.22,SW,236,3.0,7.0,39,0.00,,SKC,0.00,VWS V14.01,2013-03-10 20:49:00,
2013-03-10 13:54:00,60.7,35.6,30.22,West,271,0.0,7.0,39,0.00,,SKC,0.00,VWS V14.01,2013-03-10 20:54:00,
2013-03-10 13:59:00,60.2,35.2,30.22,North,351,1.0,7.0,39,0.00,,SKC,0.00,VWS V14.01,2013-03-10 20:59:00,
2013-03-10 14:00:00,60.2,35.2,30.22,WNW,303,3.0,7.0,39,0.00,,SKC,0.00,VWS V14.01,2013-03-10 21:00:00,
2013-03-10 14:04:00,59.9,35.5,30.22,WSW,251,0.0,7.0,40,0.00,,SKC,0.00,VWS V14.01,2013-03-10 21:04:00,
2013-03-10 14:09:00,60.2,35.8,30.22,West,267,4.0,7.0,40,0.00,,SKC,0.00,VWS V14.01,2013-03-10 21:09:00,
2013-03-10 14:15:00,60.2,35.2,30.21,West,270,0.0,8.0,39,0.00,,SKC,0.00,VWS V14.01,2013-03-10 21:15:00,
2013-03-10 14:20:00,60.4,35.3,30.21,WSW,250,0.0,8.0,39,0.00,,SKC,0.00,VWS V14.01,2013-03-10 21:20:00,
2013-03-10 14:25:00,60.5,35.4,30.21,WNW,302,5.0,8.0,39,0.00,,SKC,0.00,VWS V14.01,2013-03-10 21:25:00,
2013-03-10 14:30:00,60.4,36.0,30.21,SSW,211,4.0,4.0,40,0.00,,SKC,0.00,VWS V14.01,2013-03-10 21:30:00,
2013-03-10 14:35:00,60.2,36.4,30.21,SW,215,5.0,5.0,41,0.00,,SKC,0.00,VWS V14.01,2013-03-10 21:35:00,
2013-03-10 14:40:00,60.4,36.6,30.21,WNW,288,0.0,5.0,41,0.00,,SKC,0.00,VWS V14.01,2013-03-10 21:40:00,
2013-03-10 14:47:00,60.5,37.9,30.21,NW,323,0.0,5.0,43,0.00,,SKC,0.00,VWS V14.01,2013-03-10 21:47:00,
2013-03-10 14:52:00,60.5,38.5,30.21,NNW,339,1.0,8.0,44,0.00,,SKC,0.00,VWS V14.01,2013-03-10 21:52:00,
2013-03-10 14:57:00,60.5,38.5,30.21,West,279,2.0,8.0,44,0.00,,SKC,0.00,VWS V14.01,2013-03-10 21:57:00,
2013-03-10 15:00:00,60.5,39.1,30.21,West,263,0.0,8.0,45,0.00,,SKC,0.00,VWS V14.01,2013-03-10 22:00:00,
2013-03-10 15:02:00,60.2,38.2,30.21,WSW,251,4.0,6.0,44,0.00,,SKC,0.00,VWS V14.01,2013-03-10 22:02:00,
2013-03-10 15:08:00,60.5,38.5,30.21,WSW,244,0.0,6.0,44,0.00,,SKC,0.00,VWS V14.01,2013-03-10 22:08:00,
2013-03-10 15:13:00,60.9,40.0,30.21,West,278,4.0,6.0,46,0.00,,SKC,0.00,VWS V14.01,2013-03-10 22:13:00,
2013-03-10 15:18:00,60.7,40.4,30.20,WNW,293,4.0,6.0,47,0.00,,SKC,0.00,VWS V14.01,2013-03-10 22:18:00,
2013-03-10 15:23:00,60.4,40.1,30.20,WNW,295,0.0,6.0,47,0.00,,SKC,0.00,VWS V14.01,2013-03-10 22:23:00,
2013-03-10 15:29:00,60.2,41.0,30.20,West,279,0.0,6.0,49,0.00,,SKC,0.00,VWS V14.01,2013-03-10 22:29:00,
2013-03-10 15:30:00,60.2,40.5,30.21,NW,318,3.0,7.0,48,0.00,,SKC,0.00,VWS V14.01,2013-03-10 22:30:00,
2013-03-10 15:34:00,60.5,41.8,30.21,WSW,251,0.0,4.0,50,0.00,,SKC,0.00,VWS V14.01,2013-03-10 22:34:00,
2013-03-10 15:39:00,60.4,40.6,30.21,WNW,300,2.0,6.0,48,0.00,,SKC,0.00,VWS V14.01,2013-03-10 22:39:00,
2013-03-10 15:44:00,60.7,41.5,30.21,West,279,2.0,6.0,49,0.00,,SKC,0.00,VWS V14.01,2013-03-10 22:44:00,
2013-03-10 15:49:00,60.5,41.3,30.21,SW,218,0.0,6.0,49,0.00,,SKC,0.00,VWS V14.01,2013-03-10 22:49:00,
2013-03-10 15:55:00,60.9,40.5,30.21,West,267,2.0,6.0,47,0.00,,SKC,0.00,VWS V14.01,2013-03-10 22:55:00,
2013-03-10 16:00:00,60.7,41.5,30.22,WSW,254,0.0,6.0,49,0.00,,SKC,0.00,VWS V14.01,2013-03-10 23:00:00,
2013-03-10 16:05:00,60.1,40.4,30.22,West,263,1.0,6.0,48,0.00,,SKC,0.00,VWS V14.01,2013-03-10 23:05:00,
2013-03-10 16:13:00,60.4,41.2,30.22,NW,304,0.0,6.0,49,0.00,,SKC,0.00,VWS V14.01,2013-03-10 23:13:00,
2013-03-10 16:18:00,60.2,41.0,30.23,WSW,256,0.0,6.0,49,0.00,,SKC,0.00,VWS V14.01,2013-03-10 23:18:00,
2013-03-10 16:23:00,60.4,41.2,30.23,WSW,255,0.0,6.0,49,0.00,,SKC,0.00,VWS V14.01,2013-03-10 23:23:00,
2013-03-10 16:29:00,60.1,40.9,30.23,SW,219,4.0,6.0,49,0.00,,SKC,0.00,VWS V14.01,2013-03-10 23:29:00,
2013-03-10 16:30:00,59.8,40.1,30.23,SSW,208,0.0,6.0,48,0.00,,SKC,0.00,VWS V14.01,2013-03-10 23:30:00,
2013-03-10 16:34:00,59.5,41.4,30.23,West,279,0.0,4.0,51,0.00,,SKC,0.00,VWS V14.01,2013-03-10 23:34:00,
2013-03-10 16:39:00,59.8,40.6,30.23,West,278,0.0,4.0,49,0.00,,SKC,0.00,VWS V14.01,2013-03-10 23:39:00,
2013-03-10 16:44:00,59.6,39.9,30.23,West,278,0.0,4.0,48,0.00,,SKC,0.00,VWS V14.01,2013-03-10 23:44:00,
2013-03-10 16:49:00,59.5,40.3,30.23,WNW,302,0.0,4.0,49,0.00,,SKC,0.00,VWS V14.01,2013-03-10 23:49:00,
2013-03-10 16:55:00,59.6,41.0,30.23,WNW,302,0.0,4.0,50,0.00,,SKC,0.00,VWS V14.01,2013-03-10 23:55:00,
2013-03-10 17:00:00,60.1,40.9,30.22,WNW,302,0.0,0.0,49,0.00,,SKC,0.00,VWS V14.01,2013-03-11 00:00:00,
2013-03-10 17:05:00,60.1,40.4,30.22,SW,228,0.0,4.0,48,0.00,,SKC,0.00,VWS V14.01,2013-03-11 00:05:00,
2013-03-10 17:10:00,60.4,41.2,30.22,West,263,0.0,4.0,49,0.00,,SKC,0.00,VWS V14.01,2013-03-11 00:10:00,
2013-03-10 17:15:00,59.9,40.7,30.22,SSW,200,0.0,4.0,49,0.00,,SKC,0.00,VWS V14.01,2013-03-11 00:15:00,
2013-03-10 17:21:00,59.5,41.4,30.22,SSE,161,0.0,5.0,51,0.00,,SKC,0.00,VWS V14.01,2013-03-11 00:21:00,
2013-03-10 17:26:00,58.6,39.5,30.22,SSE,160,0.0,5.0,49,0.00,,SKC,0.00,VWS V14.01,2013-03-11 00:26:00,
2013-03-10 17:30:00,58.3,40.3,30.22,SSE,160,0.0,5.0,51,0.00,,SKC,0.00,VWS V14.01,2013-03-11 00:30:00,
2013-03-10 17:32:00,58.1,40.1,30.22,SSW,192,0.0,3.0,51,0.00,,SKC,0.00,VWS V14.01,2013-03-11 00:32:00,
2013-03-10 17:37:00,58.0,40.0,30.22,SW,225,5.0,5.0,51,0.00,,SKC,0.00,VWS V14.01,2013-03-11 00:37:00,
2013-03-10 17:43:00,57.6,40.1,30.22,SW,221,1.0,5.0,52,0.00,,SKC,0.00,VWS V14.01,2013-03-11 00:43:00,
2013-03-10 17:48:00,57.5,41.0,30.22,SW,221,0.0,5.0,54,0.00,,SKC,0.00,VWS V14.01,2013-03-11 00:48:00,
2013-03-10 17:53:00,57.3,40.3,30.22,SW,221,0.0,5.0,53,0.00,,SKC,0.00,VWS V14.01,2013-03-11 00:53:00,
2013-03-10 17:58:00,57.0,40.1,30.22,SW,221,2.0,5.0,53,0.00,,SKC,0.00,VWS V14.01,2013-03-11 00:58:00,
2013-03-10 18:00:00,57.0,39.6,30.22,SW,221,0.0,5.0,52,0.00,,SKC,0.00,VWS V14.01,2013-03-11 01:00:00,
2013-03-10 18:04:00,56.9,40.0,30.22,SW,221,0.0,3.0,53,0.00,,SKC,0.00,VWS V14.01,2013-03-11 01:04:00,
2013-03-10 18:09:00,56.7,40.7,30.22,SW,221,0.0,3.0,55,0.00,,SKC,0.00,VWS V14.01,2013-03-11 01:09:00,
2013-03-10 18:14:00,56.6,40.2,30.23,SW,221,0.0,3.0,54,0.00,,SKC,0.00,VWS V14.01,2013-03-11 01:14:00,
2013-03-10 18:19:00,56.5,40.5,30.23,SW,221,0.0,3.0,55,0.00,,SKC,0.00,VWS V14.01,2013-03-11 01:19:00,
2013-03-10 18:24:00,56.3,40.4,30.23,WSW,248,0.0,3.0,55,0.00,,SKC,0.00,VWS V14.01,2013-03-11 01:24:00,
2013-03-10 18:29:00,56.0,40.5,30.24,WSW,248,0.0,3.0,56,0.00,,SKC,0.00,VWS V14.01,2013-03-11 01:29:00,
2013-03-10 18:30:00,56.0,40.5,30.24,WSW,248,0.0,3.0,56,0.00,,SKC,0.00,VWS V14.01,2013-03-11 01:30:00,
2013-03-10 18:35:00,55.7,40.3,30.24,WSW,248,0.0,0.0,56,0.00,,SKC,0.00,VWS V14.01,2013-03-11 01:35:00,
2013-03-10 18:40:00,55.6,40.6,30.24,WSW,248,0.0,0.0,57,0.00,,SKC,0.00,VWS V14.01,2013-03-11 01:40:00,
2013-03-10 18:45:00,55.3,40.8,30.24,WSW,248,0.0,0.0,58,0.00,,SKC,0.00,VWS V14.01,2013-03-11 01:45:00,
2013-03-10 18:50:00,55.1,40.6,30.24,WSW,248,0.0,0.0,58,0.00,,SKC,0.00,VWS V14.01,2013-03-11 01:50:00,
2013-03-10 18:56:00,54.8,42.0,30.24,WSW,248,0.0,0.0,62,0.00,,SKC,0.00,VWS V14.01,2013-03-11 01:56:00,
2013-03-10 19:00:00,54.5,41.3,30.24,WSW,248,0.0,0.0,61,0.00,,SKC,0.00,VWS V14.01,2013-03-11 02:00:00,
2013-03-10 19:01:00,54.5,41.8,30.24,WSW,248,0.0,0.0,62,0.00,,SKC,0.00,VWS V14.01,2013-03-11 02:01:00,
2013-03-10 19:06:00,54.1,41.4,30.24,WSW,248,0.0,0.0,62,0.00,,SKC,0.00,VWS V14.01,2013-03-11 02:06:00,
2013-03-10 19:12:00,53.5,41.6,30.24,WSW,248,0.0,0.0,64,0.00,,SKC,0.00,VWS V14.01,2013-03-11 02:12:00,
2013-03-10 19:18:00,53.1,41.7,30.24,WSW,248,0.0,0.0,65,0.00,,SKC,0.00,VWS V14.01,2013-03-11 02:18:00,
2013-03-10 19:23:00,52.5,41.5,30.24,WSW,248,0.0,0.0,66,0.00,,SKC,0.00,VWS V14.01,2013-03-11 02:23:00,
2013-03-10 19:28:00,52.0,41.8,30.24,WSW,248,0.0,0.0,68,0.00,,SKC,0.00,VWS V14.01,2013-03-11 02:28:00,
2013-03-10 19:30:00,51.7,41.9,30.25,WSW,248,0.0,0.0,69,0.00,,SKC,0.00,VWS V14.01,2013-03-11 02:30:00,
2013-03-10 19:33:00,51.4,42.0,30.25,WSW,248,0.0,0.0,70,0.00,,SKC,0.00,VWS V14.01,2013-03-11 02:33:00,
2013-03-10 19:38:00,50.7,41.7,30.25,WSW,248,0.0,0.0,71,0.00,,SKC,0.00,VWS V14.01,2013-03-11 02:38:00,
2013-03-10 19:43:00,50.2,41.5,30.25,WSW,248,0.0,0.0,72,0.00,,SKC,0.00,VWS V14.01,2013-03-11 02:43:00,
2013-03-10 19:48:00,49.8,41.2,30.25,WSW,248,0.0,0.0,72,0.00,,SKC,0.00,VWS V14.01,2013-03-11 02:48:00,
2013-03-10 19:53:00,49.4,41.1,30.25,WSW,248,0.0,0.0,73,0.00,,SKC,0.00,VWS V14.01,2013-03-11 02:53:00,
2013-03-10 19:59:00,49.1,40.8,30.25,WSW,248,0.0,0.0,73,0.00,,SKC,0.00,VWS V14.01,2013-03-11 02:59:00,
2013-03-10 20:00:00,49.1,40.8,30.26,WSW,248,0.0,0.0,73,0.00,,SKC,0.00,VWS V14.01,2013-03-11 03:00:00,
2013-03-10 20:04:00,48.8,40.9,30.26,WSW,248,0.0,0.0,74,0.00,,SKC,0.00,VWS V14.01,2013-03-11 03:04:00,
2013-03-10 20:09:00,48.6,40.7,30.26,WSW,248,0.0,0.0,74,0.00,,SKC,0.00,VWS V14.01,2013-03-11 03:09:00,
2013-03-10 20:14:00,48.2,41.0,30.24,WSW,248,0.0,0.0,76,0.00,,SKC,0.00,VWS V14.01,2013-03-11 03:14:00,
2013-03-10 20:19:00,47.7,40.5,30.24,WSW,248,0.0,0.0,76,0.00,,SKC,0.00,VWS V14.01,2013-03-11 03:19:00,
2013-03-10 20:24:00,47.3,40.5,30.24,WSW,248,0.0,0.0,77,0.00,,SKC,0.00,VWS V14.01,2013-03-11 03:24:00,
2013-03-10 20:29:00,47.0,40.5,30.25,WSW,248,0.0,0.0,78,0.00,,SKC,0.00,VWS V14.01,2013-03-11 03:29:00,
2013-03-10 20:30:00,47.0,40.5,30.25,WSW,248,0.0,0.0,78,0.00,,SKC,0.00,VWS V14.01,2013-03-11 03:30:00,
2013-03-10 20:34:00,46.7,40.2,30.25,WSW,248,0.0,0.0,78,0.00,,SKC,0.00,VWS V14.01,2013-03-11 03:34:00,
2013-03-10 20:40:00,46.5,40.3,30.25,WSW,248,0.0,0.0,79,0.00,,SKC,0.00,VWS V14.01,2013-03-11 03:40:00,
2013-03-10 20:45:00,46.2,40.4,30.25,WSW,248,0.0,0.0,80,0.00,,SKC,0.00,VWS V14.01,2013-03-11 03:45:00,
2013-03-10 20:50:00,46.0,40.2,30.25,WSW,248,0.0,0.0,80,0.00,,SKC,0.00,VWS V14.01,2013-03-11 03:50:00,
2013-03-10 20:55:00,45.7,40.2,30.25,WSW,248,0.0,0.0,81,0.00,,SKC,0.00,VWS V14.01,2013-03-11 03:55:00,
2013-03-10 21:00:00,45.5,40.0,30.25,WSW,248,0.0,0.0,81,0.00,,SKC,0.00,VWS V14.01,2013-03-11 04:00:00,
2013-03-10 21:04:00,45.4,39.9,30.25,WSW,248,0.0,0.0,81,0.00,,SKC,0.00,VWS V14.01,2013-03-11 04:04:00,
2013-03-10 21:07:00,45.2,39.7,30.25,WSW,248,0.0,0.0,81,0.00,,SKC,0.00,VWS V14.01,2013-03-11 04:07:00,
2013-03-10 21:12:00,45.1,39.9,30.25,WSW,248,0.0,0.0,82,0.00,,SKC,0.00,VWS V14.01,2013-03-11 04:12:00,
2013-03-10 21:18:00,45.1,39.9,30.22,WSW,248,0.0,0.0,82,0.00,,SKC,0.00,VWS V14.01,2013-03-11 04:18:00,
2013-03-10 21:23:00,44.8,39.7,30.22,WSW,248,0.0,0.0,82,0.00,,SKC,0.00,VWS V14.01,2013-03-11 04:23:00,
2013-03-10 21:28:00,44.5,39.7,30.22,WSW,248,0.0,0.0,83,0.00,,SKC,0.00,VWS V14.01,2013-03-11 04:28:00,
2013-03-10 21:30:00,44.5,39.7,30.22,WSW,248,0.0,0.0,83,0.00,,SKC,0.00,VWS V14.01,2013-03-11 04:30:00,
2013-03-10 21:33:00,44.2,39.4,30.22,WSW,248,0.0,0.0,83,0.00,,SKC,0.00,VWS V14.01,2013-03-11 04:33:00,
2013-03-10 21:38:00,44.1,39.6,30.22,WSW,248,0.0,0.0,84,0.00,,SKC,0.00,VWS V14.01,2013-03-11 04:38:00,
2013-03-10 21:43:00,43.8,39.3,30.22,WSW,248,0.0,0.0,84,0.00,,SKC,0.00,VWS V14.01,2013-03-11 04:43:00,
2013-03-10 21:49:00,43.6,39.1,30.23,WSW,248,0.0,0.0,84,0.00,,SKC,0.00,VWS V14.01,2013-03-11 04:49:00,
2013-03-10 21:54:00,43.5,39.0,30.23,WSW,248,0.0,0.0,84,0.00,,SKC,0.00,VWS V14.01,2013-03-11 04:54:00,
2013-03-10 21:59:00,43.3,38.8,30.23,WSW,248,0.0,0.0,84,0.00,,SKC,0.00,VWS V14.01,2013-03-11 04:59:00,
2013-03-10 22:00:00,43.3,38.8,30.23,WSW,248,0.0,0.0,84,0.00,,SKC,0.00,VWS V14.01,2013-03-11 05:00:00,
2013-03-10 22:04:00,43.2,38.7,30.23,WSW,248,0.0,0.0,84,0.00,,SKC,0.00,VWS V14.01,2013-03-11 05:04:00,
2013-03-10 22:09:00,43.1,38.6,30.23,WSW,248,0.0,0.0,84,0.00,,SKC,0.00,VWS V14.01,2013-03-11 05:09:00,
2013-03-10 22:14:00,43.1,38.6,30.24,WSW,248,0.0,0.0,84,0.00,,SKC,0.00,VWS V14.01,2013-03-11 05:14:00,
2013-03-10 22:19:00,42.9,38.4,30.24,WSW,248,0.0,0.0,84,0.00,,SKC,0.00,VWS V14.01,2013-03-11 05:19:00,
2013-03-10 22:25:00,42.8,38.6,30.24,WSW,248,0.0,0.0,85,0.00,,SKC,0.00,VWS V14.01,2013-03-11 05:25:00,
2013-03-10 22:30:00,42.8,38.6,30.24,WSW,248,0.0,0.0,85,0.00,,SKC,0.00,VWS V14.01,2013-03-11 05:30:00,
2013-03-10 22:35:00,42.8,38.9,30.24,WSW,248,0.0,0.0,86,0.00,,SKC,0.00,VWS V14.01,2013-03-11 05:35:00,
2013-03-10 22:40:00,42.6,38.7,30.24,WSW,248,0.0,0.0,86,0.00,,SKC,0.00,VWS V14.01,2013-03-11 05:40:00,
2013-03-10 22:45:00,42.5,38.6,30.24,WSW,248,0.0,0.0,86,0.00,,SKC,0.00,VWS V14.01,2013-03-11 05:45:00,
2013-03-10 22:50:00,42.5,38.9,30.24,WSW,248,0.0,0.0,87,0.00,,SKC,0.00,VWS V14.01,2013-03-11 05:50:00,
2013-03-10 22:55:00,42.5,38.9,30.24,WSW,248,0.0,0.0,87,0.00,,SKC,0.00,VWS V14.01,2013-03-11 05:55:00,
2013-03-10 23:00:00,42.5,38.9,30.24,WSW,248,0.0,0.0,87,0.00,,SKC,0.00,VWS V14.01,2013-03-11 06:00:00,
2013-03-10 23:01:00,42.5,38.9,30.24,WSW,248,0.0,0.0,87,0.00,,SKC,0.00,VWS V14.01,2013-03-11 06:01:00,
2013-03-10 23:06:00,42.3,38.7,30.24,WSW,248,0.0,0.0,87,0.00,,SKC,0.00,VWS V14.01,2013-03-11 06:06:00,
2013-03-10 23:12:00,42.3,38.7,30.24,WSW,248,0.0,0.0,87,0.00,,SKC,0.00,VWS V14.01,2013-03-11 06:12:00,
2013-03-10 23:17:00,42.3,39.0,30.23,WSW,248,0.0,0.0,88,0.00,,SKC,0.00,VWS V14.01,2013-03-11 06:17:00,
2013-03-10 23:22:00,42.3,39.0,30.23,WSW,248,0.0,0.0,88,0.00,,SKC,0.00,VWS V14.01,2013-03-11 06:22:00,
2013-03-10 23:27:00,42.2,38.9,30.23,WSW,248,0.0,0.0,88,0.00,,SKC,0.00,VWS V14.01,2013-03-11 06:27:00,
2013-03-10 23:30:00,42.1,38.5,30.23,WSW,248,0.0,0.0,87,0.00,,SKC,0.00,VWS V14.01,2013-03-11 06:30:00,
2013-03-10 23:32:00,41.9,38.3,30.23,WSW,248,0.0,0.0,87,0.00,,SKC,0.00,VWS V14.01,2013-03-11 06:32:00,
2013-03-10 23:38:00,41.5,37.9,30.23,WSW,248,0.0,0.0,87,0.00,,SKC,0.00,VWS V14.01,2013-03-11 06:38:00,
2013-03-10 23:43:00,41.5,38.2,30.23,WSW,248,0.0,0.0,88,0.00,,SKC,0.00,VWS V14.01,2013-03-11 06:43:00,
2013-03-10 23:48:00,41.5,38.2,30.23,WSW,248,0.0,0.0,88,0.00,,SKC,0.00,VWS V14.01,2013-03-11 06:48:00,
2013-03-10 23:53:00,41.5,38.2,30.23,WSW,248,0.0,0.0,88,0.00,,SKC,0.00,VWS V14.01,2013-03-11 06:53:00,
2013-03-10 23:58:00,41.3,38.3,30.23,WSW,248,0.0,0.0,89,0.00,,SKC,0.00,VWS V14.01,2013-03-11 06:58:00,